Time;durP1;ratioP1;P1;durP2;ratioP2;P2;SDS_P1;SDS_P2;PMS_P1;PMS_P2;Temp;Humidity;BMP_temperature;BMP_pressure;BME280_temperature;BME280_humidity;BME280_pressure;Samples;Min_cycle;Max_cycle;Signal;HPM_P1;HPM_P2
2021/04/22 00:00:23;;;;;;;2.63;0.90;;;9.90;99.90;;;;;;5094825;28;20214;-79
2021/04/22 00:02:49;;;;;;;1.50;0.70;;;9.90;99.90;;;;;;5104626;28;20758;-79
2021/04/22 00:05:25;;;;;;;0.57;0.57;;;9.90;99.90;;;;;;5097791;28;20279;-79
2021/04/22 00:07:51;;;;;;;0.30;0.30;;;9.80;99.90;;;;;;5101273;28;20273;-80
2021/04/22 00:10:20;;;;;;;1.13;1.13;;;9.80;99.90;;;;;;5096254;28;20270;-78
2021/04/22 00:12:46;;;;;;;0.57;0.57;;;9.80;99.90;;;;;;5114773;28;20598;-80
2021/04/22 00:15:18;;;;;;;1.37;0.57;;;9.80;99.90;;;;;;5092113;28;20187;-80
2021/04/22 00:17:44;;;;;;;0.40;0.40;;;9.80;99.90;;;;;;5100414;28;20186;-79
2021/04/22 00:20:11;;;;;;;0.30;0.30;;;9.70;99.90;;;;;;5107745;28;20228;-80
2021/04/22 00:22:37;;;;;;;1.00;0.83;;;9.80;99.90;;;;;;5105317;27;20256;-80
2021/04/22 00:25:03;;;;;;;2.57;0.63;;;9.80;99.90;;;;;;5097015;28;20187;-80
2021/04/22 00:27:29;;;;;;;0.53;0.53;;;9.80;99.90;;;;;;5095027;28;20183;-80
2021/04/22 00:29:55;;;;;;;0.50;0.50;;;9.90;99.90;;;;;;5091958;28;20632;-80
2021/04/22 00:32:20;;;;;;;0.60;0.60;;;9.70;99.90;;;;;;5095325;28;20183;-79
2021/04/22 00:34:46;;;;;;;0.53;0.53;;;9.80;99.90;;;;;;5100552;27;20178;-79
2021/04/22 00:37:11;;;;;;;1.03;0.60;;;9.70;99.90;;;;;;5121807;27;20182;-80
2021/04/22 00:39:38;;;;;;;0.77;0.50;;;9.60;99.90;;;;;;5090551;28;20210;-80
2021/04/22 00:42:04;;;;;;;0.40;0.40;;;9.70;99.90;;;;;;5090889;28;20195;-80
2021/04/22 00:44:31;;;;;;;0.60;0.60;;;9.60;99.90;;;;;;5103824;28;20219;-80
2021/04/22 00:46:57;;;;;;;0.93;0.87;;;9.60;99.90;;;;;;5102435;28;20658;-79
2021/04/22 00:49:27;;;;;;;0.20;0.20;;;9.60;99.90;;;;;;5096825;28;20210;-78
2021/04/22 00:51:53;;;;;;;0.30;0.30;;;9.70;99.90;;;;;;5100186;28;20270;-80
2021/04/22 00:54:19;;;;;;;0.43;0.43;;;9.70;99.90;;;;;;5091356;28;20667;-80
2021/04/22 00:56:45;;;;;;;1.67;0.30;;;9.60;99.90;;;;;;5091865;28;20184;-79
2021/04/22 00:59:11;;;;;;;0.20;0.20;;;9.60;99.90;;;;;;5093665;28;20228;-79
2021/04/22 01:01:36;;;;;;;0.20;0.20;;;9.60;99.90;;;;;;5107736;27;20287;-80
2021/04/22 01:04:04;;;;;;;0.10;0.10;;;9.60;99.90;;;;;;5105538;28;20214;-80
2021/04/22 01:06:30;;;;;;;0.10;0.10;;;9.60;99.90;;;;;;5095417;27;20177;-79
2021/04/22 01:08:56;;;;;;;1.60;0.80;;;9.60;99.90;;;;;;5105181;28;20195;-80
2021/04/22 01:11:29;;;;;;;0.30;0.30;;;9.60;99.90;;;;;;5111135;27;20198;-80
2021/04/22 01:13:55;;;;;;;0.30;0.30;;;9.60;99.90;;;;;;5101890;28;20191;-80
2021/04/22 01:16:20;;;;;;;2.80;0.73;;;9.60;99.90;;;;;;5101321;28;20194;-80
2021/04/22 01:18:46;;;;;;;0.60;0.60;;;9.40;99.90;;;;;;5094149;28;20249;-80
2021/04/22 01:21:27;;;;;;;1.27;1.10;;;9.10;99.90;;;;;;5099038;28;20223;-79
2021/04/22 01:23:54;;;;;;;0.30;0.20;;;9.10;99.90;;;;;;5108071;28;20206;-77
2021/04/22 01:26:22;;;;;;;2.17;0.30;;;9.10;99.90;;;;;;5100887;28;20208;-80
2021/04/22 01:28:48;;;;;;;0.20;0.20;;;9.00;99.90;;;;;;5098651;27;20187;-78
2021/04/22 01:31:13;;;;;;;1.17;0.70;;;9.00;99.90;;;;;;5103171;28;20215;-79
2021/04/22 01:33:39;;;;;;;0.40;0.40;;;9.00;99.90;;;;;;5095508;28;20200;-80
2021/04/22 01:36:06;;;;;;;0.60;0.60;;;9.10;99.90;;;;;;5106977;28;20241;-80
2021/04/22 01:38:32;;;;;;;0.20;0.20;;;9.10;99.90;;;;;;5099452;28;20197;-78
2021/04/22 01:40:59;;;;;;;0.30;0.30;;;9.00;99.90;;;;;;5096677;28;20221;-80
2021/04/22 01:43:25;;;;;;;0.40;0.40;;;9.00;99.90;;;;;;5103921;28;20215;-79
2021/04/22 01:45:51;;;;;;;0.20;0.20;;;8.90;99.90;;;;;;5111038;27;20244;-80
2021/04/22 01:48:17;;;;;;;0.40;0.40;;;8.80;99.90;;;;;;5103556;28;20669;-79
2021/04/22 01:50:43;;;;;;;0.40;0.33;;;8.70;99.90;;;;;;5106473;28;20260;-79
2021/04/22 01:53:10;;;;;;;0.30;0.30;;;8.70;99.90;;;;;;5091875;28;20192;-80
2021/04/22 01:55:37;;;;;;;1.43;1.03;;;8.50;99.90;;;;;;5099126;28;20196;-80
2021/04/22 01:58:04;;;;;;;0.40;0.40;;;8.50;99.90;;;;;;5107429;28;20202;-80
2021/04/22 02:00:33;;;;;;;0.10;0.10;;;8.50;99.90;;;;;;5106678;28;20217;-80
2021/04/22 02:02:58;;;;;;;0.53;0.53;;;8.50;99.90;;;;;;5109270;27;20207;-78
2021/04/22 02:05:24;;;;;;;1.27;0.17;;;8.40;99.90;;;;;;5101656;28;20192;-80
2021/04/22 02:07:51;;;;;;;0.43;0.43;;;8.50;99.90;;;;;;5111542;28;20189;-80
2021/04/22 02:10:17;;;;;;;1.17;0.50;;;8.50;99.90;;;;;;5109882;27;20671;-79
2021/04/22 02:12:43;;;;;;;0.23;0.23;;;8.40;99.90;;;;;;5109800;27;20580;-78
2021/04/22 02:15:14;;;;;;;1.60;0.20;;;8.40;99.90;;;;;;5101977;28;20189;-79
2021/04/22 02:17:40;;;;;;;1.30;1.20;;;8.40;99.90;;;;;;5101542;28;20203;-80
2021/04/22 02:20:10;;;;;;;0.57;0.57;;;8.30;99.90;;;;;;5094765;28;20314;-79
2021/04/22 02:22:36;;;;;;;0.30;0.17;;;8.40;99.90;;;;;;5092086;28;20194;-79
2021/04/22 02:25:07;;;;;;;0.60;0.53;;;8.20;99.90;;;;;;5101467;28;20555;-80
2021/04/22 02:27:34;;;;;;;0.30;0.30;;;8.20;99.90;;;;;;5108728;28;20852;-79
2021/04/22 02:29:59;;;;;;;0.20;0.20;;;8.10;99.90;;;;;;5099918;28;20200;-80
2021/04/22 02:32:25;;;;;;;0.30;0.27;;;8.10;99.90;;;;;;5091566;28;20555;-80
2021/04/22 02:34:51;;;;;;;0.20;0.20;;;8.10;99.90;;;;;;5104082;28;20236;-80
2021/04/22 02:37:16;;;;;;;0.20;0.20;;;8.00;99.90;;;;;;5107819;27;20276;-79
2021/04/22 02:39:42;;;;;;;0.40;0.40;;;8.00;99.90;;;;;;5111478;27;20578;-79
2021/04/22 02:42:07;;;;;;;0.20;0.20;;;7.80;99.90;;;;;;5095189;28;20256;-80
2021/04/22 02:44:33;;;;;;;0.97;0.33;;;7.70;99.90;;;;;;5091308;28;20224;-80
2021/04/22 02:46:59;;;;;;;0.20;0.20;;;7.70;99.90;;;;;;5104539;27;20208;-80
2021/04/22 02:49:24;;;;;;;0.20;0.20;;;7.70;99.90;;;;;;5110883;27;20199;-79
2021/04/22 02:51:50;;;;;;;0.57;0.47;;;7.60;99.90;;;;;;5100834;27;20196;-79
2021/04/22 02:54:16;;;;;;;4.10;0.53;;;7.50;99.90;;;;;;5099622;28;20292;-79
2021/04/22 02:56:41;;;;;;;0.37;0.37;;;7.50;99.90;;;;;;5111414;28;20199;-79
2021/04/22 02:59:07;;;;;;;1.13;1.13;;;7.40;99.90;;;;;;5101074;28;20199;-79
2021/04/22 03:01:32;;;;;;;0.20;0.20;;;7.30;99.90;;;;;;5117386;27;20192;-78
2021/04/22 03:03:58;;;;;;;0.77;0.43;;;7.30;99.90;;;;;;5098037;28;20271;-80
2021/04/22 03:06:23;;;;;;;0.63;0.40;;;7.20;99.90;;;;;;5097758;28;20645;-79
2021/04/22 03:08:49;;;;;;;0.30;0.30;;;7.20;99.90;;;;;;5091839;28;20181;-79
2021/04/22 03:11:15;;;;;;;4.73;0.33;;;7.20;99.90;;;;;;5097357;27;20208;-79
2021/04/22 03:13:40;;;;;;;1.40;0.67;;;7.10;99.90;;;;;;5100517;28;20195;-79
2021/04/22 03:16:06;;;;;;;0.60;0.20;;;7.00;99.90;;;;;;5099692;27;20180;-80
2021/04/22 03:18:32;;;;;;;0.50;0.50;;;6.90;99.90;;;;;;5100372;28;20179;-79
2021/04/22 03:20:58;;;;;;;0.30;0.30;;;6.90;99.90;;;;;;5095460;28;20266;-79
2021/04/22 03:23:24;;;;;;;2.83;0.43;;;6.80;99.90;;;;;;5100623;28;20212;-78
2021/04/22 03:25:49;;;;;;;1.37;0.60;;;6.70;99.90;;;;;;5092858;28;20181;-79
2021/04/22 03:28:15;;;;;;;0.30;0.30;;;6.70;99.90;;;;;;5095904;28;20616;-79
2021/04/22 03:30:41;;;;;;;0.10;0.10;;;6.60;99.90;;;;;;5092502;28;20756;-79
2021/04/22 03:33:07;;;;;;;0.13;0.13;;;6.60;99.90;;;;;;5099584;28;20186;-79
2021/04/22 03:35:33;;;;;;;0.10;0.10;;;6.50;99.90;;;;;;5107302;28;20190;-78
2021/04/22 03:37:58;;;;;;;0.17;0.17;;;6.50;99.90;;;;;;5104055;28;20257;-79
2021/04/22 03:40:26;;;;;;;1.30;0.87;;;6.40;99.90;;;;;;5114339;28;20248;-80
2021/04/22 03:42:53;;;;;;;0.20;0.20;;;6.40;99.90;;;;;;5097261;28;20230;-80
2021/04/22 03:45:19;;;;;;;0.20;0.20;;;6.30;99.90;;;;;;5094843;28;20196;-80
2021/04/22 03:47:45;;;;;;;0.10;0.10;;;6.30;99.90;;;;;;5099695;28;20180;-80
2021/04/22 03:50:12;;;;;;;0.33;0.33;;;6.30;99.90;;;;;;5092504;28;20202;-79
2021/04/22 03:52:39;;;;;;;0.47;0.47;;;6.20;99.90;;;;;;5098224;28;20590;-78
2021/04/22 03:55:07;;;;;;;1.50;0.47;;;6.20;99.90;;;;;;5096540;28;20179;-79
2021/04/22 03:57:32;;;;;;;0.10;0.10;;;6.10;99.90;;;;;;5093115;28;20532;-79
2021/04/22 03:59:58;;;;;;;0.27;0.27;;;6.10;99.90;;;;;;5093013;28;20208;-79
2021/04/22 04:02:24;;;;;;;0.13;0.13;;;6.00;99.90;;;;;;5107159;28;20211;-79
2021/04/22 04:04:49;;;;;;;0.10;0.10;;;6.00;99.90;;;;;;5108158;27;20188;-80
2021/04/22 04:07:15;;;;;;;0.10;0.10;;;5.90;99.90;;;;;;5115388;28;20189;-79
2021/04/22 04:09:41;;;;;;;0.00;0.00;;;5.90;99.90;;;;;;5095775;28;20702;-79
2021/04/22 04:12:07;;;;;;;3.50;0.20;;;5.90;99.90;;;;;;5115087;28;20208;-80
2021/04/22 04:14:34;;;;;;;0.10;0.10;;;5.80;99.90;;;;;;5107834;28;20183;-82
2021/04/22 04:17:01;;;;;;;0.37;0.37;;;5.80;99.90;;;;;;5114546;28;20187;-80
2021/04/22 04:19:27;;;;;;;0.10;0.10;;;5.80;99.90;;;;;;5094281;27;20664;-79
2021/04/22 04:21:52;;;;;;;0.43;0.40;;;5.80;99.90;;;;;;5091127;28;20193;-80
2021/04/22 04:24:18;;;;;;;0.07;0.07;;;5.70;99.90;;;;;;5091112;28;20211;-80
2021/04/22 04:26:43;;;;;;;0.10;0.10;;;5.70;99.90;;;;;;5095302;28;20190;-80
2021/04/22 04:29:09;;;;;;;0.20;0.20;;;5.60;99.90;;;;;;5090295;28;20186;-78
2021/04/22 04:31:34;;;;;;;0.13;0.13;;;5.60;99.90;;;;;;5097901;28;21253;-80
2021/04/22 04:34:00;;;;;;;0.30;0.30;;;5.50;99.90;;;;;;5112833;28;20190;-80
2021/04/22 04:36:25;;;;;;;0.07;0.07;;;5.50;99.90;;;;;;5114536;28;20187;-80
2021/04/22 04:38:51;;;;;;;0.67;0.20;;;5.40;99.90;;;;;;5101186;28;20216;-80
2021/04/22 04:41:17;;;;;;;0.10;0.10;;;5.40;99.90;;;;;;5093139;28;20211;-80
2021/04/22 04:43:43;;;;;;;0.03;0.03;;;5.50;99.90;;;;;;5109613;28;20232;-80
2021/04/22 04:46:10;;;;;;;0.10;0.10;;;5.40;99.90;;;;;;5100963;28;20191;-80
2021/04/22 04:48:35;;;;;;;0.33;0.33;;;5.50;99.90;;;;;;5106313;28;20230;-79
2021/04/22 04:51:01;;;;;;;0.00;0.00;;;5.40;99.90;;;;;;5102197;28;20286;-79
2021/04/22 04:53:27;;;;;;;0.10;0.10;;;5.40;99.90;;;;;;5093723;28;20196;-80
2021/04/22 04:55:52;;;;;;;0.10;0.10;;;5.40;99.90;;;;;;5108968;28;20187;-80
2021/04/22 04:58:18;;;;;;;0.10;0.10;;;5.40;99.90;;;;;;5108412;28;20405;-79
2021/04/22 05:00:43;;;;;;;0.10;0.10;;;5.40;99.90;;;;;;5101578;27;20211;-80
2021/04/22 05:03:09;;;;;;;0.93;0.30;;;5.40;99.90;;;;;;5110780;27;20574;-80
2021/04/22 05:05:34;;;;;;;0.20;0.20;;;5.40;99.90;;;;;;5095556;28;20185;-80
2021/04/22 05:08:00;;;;;;;0.10;0.10;;;5.50;99.90;;;;;;5094639;28;20192;-80
2021/04/22 05:10:26;;;;;;;0.07;0.07;;;5.60;99.90;;;;;;5097731;27;20243;-80
2021/04/22 05:12:53;;;;;;;0.10;0.10;;;5.60;99.90;;;;;;5094349;28;20197;-80
2021/04/22 05:15:18;;;;;;;1.10;0.93;;;5.50;99.90;;;;;;5103303;28;20549;-81
2021/04/22 05:17:44;;;;;;;0.17;0.17;;;5.50;99.90;;;;;;5115823;27;20239;-83
2021/04/22 05:20:10;;;;;;;1.20;0.60;;;5.40;99.90;;;;;;5095139;28;20253;-82
2021/04/22 05:22:36;;;;;;;0.00;0.00;;;5.40;99.90;;;;;;5094433;28;20240;-82
2021/04/22 05:25:03;;;;;;;0.00;0.00;;;5.40;99.90;;;;;;5095507;28;20262;-83
2021/04/22 05:27:29;;;;;;;0.70;0.70;;;5.50;99.90;;;;;;5094907;28;20648;-83
2021/04/22 05:29:54;;;;;;;0.00;0.00;;;5.40;99.90;;;;;;5093337;28;20211;-80
2021/04/22 05:32:20;;;;;;;0.50;0.50;;;5.40;99.90;;;;;;5095782;28;20297;-79
2021/04/22 05:34:46;;;;;;;0.10;0.10;;;5.40;99.90;;;;;;5115697;28;20183;-79
2021/04/22 05:37:11;;;;;;;0.47;0.47;;;5.40;99.90;;;;;;5099902;28;20199;-79
2021/04/22 05:39:37;;;;;;;0.13;0.13;;;5.50;99.90;;;;;;5093879;28;20214;-79
2021/04/22 05:42:03;;;;;;;1.33;0.40;;;5.50;99.90;;;;;;5100294;28;20226;-79
2021/04/22 05:44:28;;;;;;;0.20;0.17;;;5.40;99.90;;;;;;5098968;28;20217;-79
2021/04/22 05:46:54;;;;;;;2.57;1.70;;;5.30;99.90;;;;;;5111789;28;20185;-79
2021/04/22 05:49:19;;;;;;;0.20;0.20;;;5.20;99.90;;;;;;5103817;27;20724;-82
2021/04/22 05:51:45;;;;;;;0.30;0.30;;;5.30;99.90;;;;;;5100187;28;20192;-82
2021/04/22 05:54:11;;;;;;;0.77;0.30;;;5.30;99.90;;;;;;5107786;28;20190;-82
2021/04/22 05:56:38;;;;;;;0.00;0.00;;;5.40;99.90;;;;;;5101720;28;20569;-83
2021/04/22 05:59:04;;;;;;;0.17;0.10;;;5.60;99.90;;;;;;5102921;28;20696;-81
2021/04/22 06:01:30;;;;;;;2.20;0.60;;;5.60;99.90;;;;;;5100242;27;20246;-80
2021/04/22 06:03:56;;;;;;;0.23;0.23;;;5.50;99.90;;;;;;5102762;28;20240;-82
2021/04/22 06:06:21;;;;;;;0.50;0.40;;;5.70;99.90;;;;;;5110550;28;20839;-82
2021/04/22 06:08:48;;;;;;;0.00;0.00;;;5.80;99.90;;;;;;5095937;28;20176;-79
2021/04/22 06:11:13;;;;;;;0.10;0.10;;;5.60;99.90;;;;;;5107008;27;20213;-79
2021/04/22 06:13:39;;;;;;;0.13;0.13;;;5.70;99.90;;;;;;5117510;27;20269;-79
2021/04/22 06:16:05;;;;;;;2.17;0.40;;;5.70;99.90;;;;;;5112496;27;20187;-78
2021/04/22 06:18:30;;;;;;;0.63;0.63;;;5.90;99.90;;;;;;5095952;28;20550;-79
2021/04/22 06:20:56;;;;;;;1.57;1.57;;;6.10;99.90;;;;;;5095176;28;20220;-78
2021/04/22 06:23:22;;;;;;;0.10;0.10;;;6.40;99.90;;;;;;5104841;28;20683;-81
2021/04/22 06:25:48;;;;;;;0.30;0.30;;;6.40;99.90;;;;;;5105534;28;20183;-81
2021/04/22 06:28:15;;;;;;;0.83;0.33;;;6.30;99.90;;;;;;5103839;28;20552;-81
2021/04/22 06:30:40;;;;;;;2.60;1.40;;;6.30;99.90;;;;;;5105049;28;20254;-80
2021/04/22 06:33:06;;;;;;;0.00;0.00;;;6.20;99.90;;;;;;5110669;28;20200;-83
2021/04/22 06:35:31;;;;;;;0.40;0.40;;;6.10;99.90;;;;;;5112522;28;20188;-82
2021/04/22 06:37:57;;;;;;;0.20;0.20;;;6.20;99.90;;;;;;5106683;28;20186;-82
2021/04/22 06:40:23;;;;;;;2.13;1.90;;;6.40;99.90;;;;;;5106443;28;20203;-82
2021/04/22 06:42:49;;;;;;;0.30;0.23;;;6.40;99.90;;;;;;5104199;28;20218;-81
2021/04/22 06:45:16;;;;;;;0.33;0.27;;;6.60;99.90;;;;;;5105586;28;20186;-82
2021/04/22 06:47:42;;;;;;;0.30;0.30;;;6.60;99.90;;;;;;5106276;28;20192;-80
2021/04/22 06:50:12;;;;;;;1.30;0.40;;;6.80;99.90;;;;;;5109098;28;20290;-83
2021/04/22 06:52:39;;;;;;;0.10;0.10;;;6.90;99.90;;;;;;5104718;28;20180;-82
2021/04/22 06:55:08;;;;;;;0.03;0.03;;;7.20;99.90;;;;;;5108112;28;20180;-82
2021/04/22 06:57:34;;;;;;;0.50;0.50;;;7.20;99.90;;;;;;5107913;28;20184;-81
2021/04/22 06:59:59;;;;;;;0.47;0.47;;;7.40;99.90;;;;;;5107449;28;20218;-82
2021/04/22 07:02:25;;;;;;;0.23;0.23;;;7.40;99.90;;;;;;5108164;27;20180;-81
2021/04/22 07:04:51;;;;;;;0.20;0.20;;;7.20;99.90;;;;;;5103544;28;20217;-81
2021/04/22 07:07:16;;;;;;;0.50;0.50;;;7.20;99.90;;;;;;5108402;28;20211;-82
2021/04/22 07:09:42;;;;;;;0.53;0.53;;;7.10;99.90;;;;;;5103787;28;20196;-82
2021/04/22 07:12:08;;;;;;;0.27;0.27;;;7.10;99.90;;;;;;5116611;27;20171;-82
2021/04/22 07:14:33;;;;;;;1.50;1.23;;;6.90;99.90;;;;;;5108421;28;20200;-80
2021/04/22 07:17:02;;;;;;;0.10;0.10;;;7.10;99.90;;;;;;5108019;28;20188;-82
2021/04/22 07:19:28;;;;;;;0.40;0.40;;;7.10;99.90;;;;;;5112109;28;20207;-81
2021/04/22 07:21:57;;;;;;;0.73;0.60;;;7.10;99.90;;;;;;5112272;28;20204;-81
2021/04/22 07:24:23;;;;;;;0.37;0.17;;;7.40;99.90;;;;;;5103066;28;20251;-82
2021/04/22 07:26:48;;;;;;;1.57;0.40;;;7.30;99.90;;;;;;5105605;28;20176;-82
2021/04/22 07:29:14;;;;;;;0.40;0.20;;;7.60;99.90;;;;;;5100152;28;20411;-82
2021/04/22 07:31:40;;;;;;;0.10;0.10;;;7.80;99.90;;;;;;5101605;28;20608;-82
2021/04/22 07:34:05;;;;;;;0.20;0.17;;;8.00;99.90;;;;;;5097900;28;20189;-82
2021/04/22 07:36:31;;;;;;;0.53;0.53;;;8.00;99.90;;;;;;5112990;27;20175;-81
2021/04/22 07:38:57;;;;;;;0.30;0.20;;;7.80;99.90;;;;;;5100046;28;20218;-82
2021/04/22 07:41:22;;;;;;;0.30;0.30;;;7.90;99.90;;;;;;5104001;28;20199;-81
2021/04/22 07:43:48;;;;;;;2.83;1.90;;;8.40;99.90;;;;;;5107536;28;20200;-82
2021/04/22 07:46:14;;;;;;;0.37;0.37;;;8.80;99.90;;;;;;5096644;28;20173;-81
2021/04/22 07:48:39;;;;;;;0.17;0.17;;;8.60;99.90;;;;;;5108168;28;20248;-80
2021/04/22 07:51:05;;;;;;;0.20;0.20;;;8.50;99.90;;;;;;5112901;28;20284;-82
2021/04/22 07:53:33;;;;;;;1.00;1.00;;;8.90;99.90;;;;;;5112161;28;20213;-82
2021/04/22 07:55:59;;;;;;;0.43;0.27;;;9.00;99.90;;;;;;5108754;28;20188;-82
2021/04/22 07:58:24;;;;;;;2.23;0.10;;;9.10;99.90;;;;;;5111820;28;20667;-82
2021/04/22 08:00:50;;;;;;;1.70;0.47;;;9.40;99.90;;;;;;5113668;28;20205;-81
2021/04/22 08:03:18;;;;;;;1.43;0.43;;;9.60;99.90;;;;;;5116027;27;20204;-80
2021/04/22 08:05:45;;;;;;;0.33;0.33;;;9.20;99.90;;;;;;5117368;27;20267;-82
2021/04/22 08:08:12;;;;;;;0.00;0.00;;;9.30;99.90;;;;;;5114688;28;20558;-81
2021/04/22 08:10:42;;;;;;;0.03;0.03;;;9.40;99.90;;;;;;5118536;27;20244;-81
2021/04/22 08:13:09;;;;;;;0.10;0.10;;;9.60;99.90;;;;;;5105801;27;20187;-82
2021/04/22 08:15:36;;;;;;;0.73;0.73;;;9.90;99.90;;;;;;5097398;28;20187;-81
2021/04/22 08:18:03;;;;;;;0.50;0.50;;;10.00;99.90;;;;;;5113931;28;20186;-82
2021/04/22 08:20:29;;;;;;;0.10;0.10;;;10.20;99.90;;;;;;5100557;28;20229;-81
2021/04/22 08:22:59;;;;;;;0.27;0.27;;;10.50;99.90;;;;;;5101685;28;20739;-81
2021/04/22 08:25:28;;;;;;;0.60;0.60;;;10.10;99.90;;;;;;5099426;28;20175;-81
2021/04/22 08:27:56;;;;;;;0.57;0.57;;;9.80;99.90;;;;;;5097248;28;20177;-82
2021/04/22 08:30:30;;;;;;;4.53;0.67;;;9.90;99.90;;;;;;5100514;28;20201;-82
2021/04/22 08:32:58;;;;;;;0.10;0.10;;;10.00;99.90;;;;;;5094409;28;20532;-81
2021/04/22 08:35:24;;;;;;;2.43;0.50;;;10.70;99.90;;;;;;5101592;28;20240;-80
2021/04/22 08:37:50;;;;;;;1.40;0.53;;;10.60;99.90;;;;;;5102405;28;20184;-81
2021/04/22 08:40:18;;;;;;;0.53;0.53;;;9.90;99.90;;;;;;5093210;28;20558;-82
2021/04/22 08:42:43;;;;;;;0.10;0.10;;;10.00;99.90;;;;;;5105075;28;20202;-82
2021/04/22 08:45:13;;;;;;;0.43;0.43;;;10.10;99.90;;;;;;5097503;28;20210;-82
2021/04/22 08:47:40;;;;;;;0.30;0.30;;;9.90;99.90;;;;;;5110460;28;20177;-82
2021/04/22 08:50:27;;;;;;;0.83;0.67;;;9.80;99.90;;;;;;5100968;27;20257;-82
2021/04/22 08:52:55;;;;;;;0.30;0.30;;;10.40;99.90;;;;;;5099677;27;20229;-82
2021/04/22 08:55:26;;;;;;;0.53;0.47;;;10.50;99.90;;;;;;5110643;28;20182;-82
2021/04/22 08:57:52;;;;;;;0.20;0.20;;;11.00;99.90;;;;;;5097982;28;20180;-81
2021/04/22 09:00:24;;;;;;;2.93;0.77;;;11.50;99.90;;;;;;5106497;28;20683;-82
2021/04/22 09:02:50;;;;;;;0.10;0.10;;;12.00;99.90;;;;;;5102852;27;20750;-82
2021/04/22 09:05:16;;;;;;;0.20;0.20;;;12.00;99.90;;;;;;5106423;28;20206;-80
2021/04/22 09:07:42;;;;;;;0.13;0.13;;;11.40;99.90;;;;;;5102686;28;20704;-81
2021/04/22 09:10:11;;;;;;;0.20;0.20;;;11.40;99.90;;;;;;5096086;27;20299;-81
2021/04/22 09:12:36;;;;;;;1.57;0.40;;;11.90;99.90;;;;;;5112901;27;20174;-82
2021/04/22 09:15:12;;;;;;;0.50;0.50;;;11.70;99.90;;;;;;5105782;28;20209;-81
2021/04/22 09:17:41;;;;;;;0.13;0.13;;;12.00;99.90;;;;;;5107633;28;20179;-82
2021/04/22 09:20:10;;;;;;;0.10;0.10;;;11.10;99.90;;;;;;5104953;28;20288;-81
2021/04/22 09:22:41;;;;;;;0.10;0.10;;;10.80;99.90;;;;;;5107316;28;20177;-83
2021/04/22 09:25:26;;;;;;;0.83;0.50;;;11.10;99.90;;;;;;5107345;28;20187;-81
2021/04/22 09:28:10;;;;;;;0.20;0.20;;;10.60;99.90;;;;;;5101136;28;20183;-82
2021/04/22 09:30:41;;;;;;;0.37;0.30;;;10.50;99.90;;;;;;5099610;28;20712;-82
2021/04/22 09:33:18;;;;;;;0.43;0.23;;;11.00;99.90;;;;;;5091709;28;20207;-81
2021/04/22 09:35:44;;;;;;;0.10;0.10;;;10.90;99.90;;;;;;5098509;28;20656;-82
2021/04/22 09:38:13;;;;;;;0.23;0.23;;;11.70;99.90;;;;;;5102317;28;20194;-81
2021/04/22 09:40:40;;;;;;;0.60;0.60;;;11.50;99.90;;;;;;5095943;28;20209;-83
2021/04/22 09:43:14;;;;;;;0.23;0.23;;;11.20;99.90;;;;;;5106081;28;20242;-83
2021/04/22 09:45:45;;;;;;;0.77;0.10;;;11.10;99.90;;;;;;5093534;28;20213;-83
2021/04/22 09:48:17;;;;;;;2.87;2.00;;;11.40;99.90;;;;;;5107989;28;20188;-83
2021/04/22 09:50:44;;;;;;;0.23;0.20;;;11.40;99.90;;;;;;5110945;28;20740;-83
2021/04/22 09:53:14;;;;;;;0.30;0.30;;;12.00;99.90;;;;;;5103973;28;20605;-82
2021/04/22 09:55:39;;;;;;;0.10;0.10;;;12.20;99.90;;;;;;5095414;28;20275;-81
2021/04/22 09:58:05;;;;;;;0.47;0.27;;;12.50;99.90;;;;;;5106562;28;20287;-83
2021/04/22 10:00:32;;;;;;;0.57;0.57;;;11.80;99.90;;;;;;5108323;28;20294;-83
2021/04/22 10:03:09;;;;;;;0.53;0.53;;;12.40;99.90;;;;;;5107023;27;20249;-83
2021/04/22 10:05:37;;;;;;;0.30;0.10;;;12.50;99.90;;;;;;5094547;28;20180;-83
2021/04/22 10:08:16;;;;;;;3.83;0.97;;;12.00;99.90;;;;;;5092674;28;20196;-83
2021/04/22 10:11:03;;;;;;;2.33;0.43;;;12.20;99.90;;;;;;5102427;27;20194;-83
2021/04/22 10:13:30;;;;;;;1.17;0.20;;;12.30;99.90;;;;;;5108011;28;20598;-84
2021/04/22 10:15:58;;;;;;;0.30;0.30;;;12.60;99.90;;;;;;5102253;28;20203;-84
2021/04/22 10:18:45;;;;;;;0.20;0.20;;;12.40;99.90;;;;;;5098079;28;20295;-84
2021/04/22 10:21:12;;;;;;;0.33;0.33;;;12.80;99.90;;;;;;5095434;28;20227;-83
2021/04/22 10:23:38;;;;;;;0.33;0.33;;;12.50;99.90;;;;;;5107544;27;20702;-84
2021/04/22 10:26:04;;;;;;;1.23;0.30;;;13.10;99.90;;;;;;5106795;27;20180;-83
2021/04/22 10:28:30;;;;;;;0.10;0.10;;;13.10;99.90;;;;;;5097650;28;20184;-84
2021/04/22 10:30:57;;;;;;;0.10;0.10;;;13.40;99.90;;;;;;5091788;28;20227;-83
2021/04/22 10:33:26;;;;;;;0.00;0.00;;;13.50;99.90;;;;;;5101544;28;20652;-83
2021/04/22 10:35:53;;;;;;;3.30;0.63;;;13.00;99.90;;;;;;5099231;28;20249;-84
2021/04/22 10:38:21;;;;;;;0.47;0.47;;;13.50;99.90;;;;;;5104368;28;20535;-83
2021/04/22 10:40:49;;;;;;;0.20;0.20;;;13.60;99.90;;;;;;5105550;27;20290;-83
2021/04/22 10:43:17;;;;;;;0.60;0.60;;;12.50;99.90;;;;;;5099994;27;20261;-83
2021/04/22 10:45:43;;;;;;;0.47;0.47;;;13.20;99.90;;;;;;5104781;27;20217;-84
2021/04/22 10:48:09;;;;;;;0.40;0.40;;;13.70;99.90;;;;;;5102790;28;20196;-83
2021/04/22 10:50:38;;;;;;;0.47;0.47;;;13.80;99.90;;;;;;5100844;28;20716;-84
2021/04/22 10:53:19;;;;;;;0.33;0.33;;;14.00;99.90;;;;;;5102532;28;20189;-84
2021/04/22 10:55:46;;;;;;;0.20;0.20;;;13.60;99.90;;;;;;5098500;28;20699;-84
2021/04/22 10:58:17;;;;;;;0.10;0.10;;;13.50;99.90;;;;;;5102421;28;20193;-82
2021/04/22 11:00:51;;;;;;;0.20;0.20;;;14.00;99.90;;;;;;5104035;28;20871;-83
2021/04/22 11:03:44;;;;;;;1.93;0.80;;;13.90;99.90;;;;;;5103212;27;20602;-82
2021/04/22 11:06:15;;;;;;;0.17;0.17;;;14.10;99.90;;;;;;5109749;28;20267;-84
2021/04/22 11:08:54;;;;;;;2.53;0.30;;;14.10;99.90;;;;;;5106101;28;20263;-84
2021/04/22 11:11:24;;;;;;;0.20;0.20;;;13.50;99.90;;;;;;5103422;27;20201;-84
2021/04/22 11:14:02;;;;;;;1.67;0.87;;;13.40;99.90;;;;;;5118010;27;20186;-84
2021/04/22 11:16:37;;;;;;;0.20;0.20;;;13.50;99.90;;;;;;5099625;28;20748;-83
2021/04/22 11:19:17;;;;;;;0.30;0.30;;;13.90;99.90;;;;;;5098680;28;20210;-83
2021/04/22 11:21:54;;;;;;;2.00;0.20;;;13.00;99.90;;;;;;5103188;28;20199;-82
2021/04/22 11:24:39;;;;;;;1.13;0.20;;;13.10;99.90;;;;;;5098632;28;20676;-82
2021/04/22 11:27:13;;;;;;;0.40;0.40;;;13.60;99.90;;;;;;5101196;28;20181;-82
2021/04/22 11:29:51;;;;;;;0.80;0.30;;;13.80;99.90;;;;;;5100479;28;20208;-82
2021/04/22 11:32:34;;;;;;;1.13;0.30;;;14.00;99.90;;;;;;5096806;28;20168;-82
2021/04/22 11:35:06;;;;;;;0.20;0.20;;;13.90;99.90;;;;;;5107956;27;20199;-82
2021/04/22 11:37:40;;;;;;;1.10;0.60;;;13.90;99.90;;;;;;5123097;27;20181;-82
2021/04/22 11:40:22;;;;;;;0.17;0.17;;;14.40;99.90;;;;;;5112874;28;20677;-83
2021/04/22 11:42:51;;;;;;;0.30;0.30;;;13.60;99.90;;;;;;5100715;28;20194;-83
2021/04/22 11:45:19;;;;;;;0.10;0.10;;;14.10;99.90;;;;;;5092590;28;20202;-84
2021/04/22 11:48:01;;;;;;;0.10;0.10;;;14.00;99.90;;;;;;5112443;28;20241;-82
2021/04/22 11:50:38;;;;;;;0.40;0.20;;;13.50;99.90;;;;;;5101833;28;20830;-83
2021/04/22 11:53:05;;;;;;;0.90;0.33;;;13.60;99.90;;;;;;5096191;28;20267;-84
2021/04/22 11:55:34;;;;;;;0.30;0.30;;;13.60;99.90;;;;;;5093273;28;20214;-83
2021/04/22 11:58:11;;;;;;;0.10;0.10;;;14.30;99.90;;;;;;5105589;28;20198;-83
2021/04/22 12:00:51;;;;;;;0.50;0.20;;;14.80;99.90;;;;;;5105315;28;20516;-83
2021/04/22 12:03:31;;;;;;;0.83;0.67;;;14.40;99.90;;;;;;5110749;28;20235;-83
2021/04/22 12:06:04;;;;;;;1.17;0.43;;;14.30;99.90;;;;;;5100202;28;20255;-82
2021/04/22 12:08:42;;;;;;;0.37;0.37;;;14.90;99.90;;;;;;5105516;28;20189;-82
2021/04/22 12:11:10;;;;;;;0.20;0.20;;;14.20;99.90;;;;;;5119002;27;20240;-84
2021/04/22 12:13:37;;;;;;;3.37;0.53;;;14.00;99.90;;;;;;5108411;27;20183;-83
2021/04/22 12:16:05;;;;;;;0.93;0.57;;;14.20;99.90;;;;;;5093120;28;20190;-83
2021/04/22 12:18:36;;;;;;;1.30;0.77;;;13.50;99.90;;;;;;5107508;28;20241;-83
2021/04/22 12:21:09;;;;;;;0.73;0.33;;;13.70;99.90;;;;;;5108522;28;20269;-83
2021/04/22 12:23:38;;;;;;;0.77;0.10;;;14.40;99.90;;;;;;5102120;28;20215;-79
2021/04/22 12:26:22;;;;;;;0.10;0.10;;;14.90;99.90;;;;;;5098377;28;20184;-80
2021/04/22 12:28:54;;;;;;;0.60;0.40;;;14.80;99.90;;;;;;5111983;28;20199;-81
2021/04/22 12:31:36;;;;;;;0.10;0.10;;;14.20;99.90;;;;;;5106979;28;20242;-80
2021/04/22 12:34:09;;;;;;;0.43;0.43;;;14.10;99.90;;;;;;5103211;28;20193;-81
2021/04/22 12:36:36;;;;;;;0.27;0.27;;;14.30;99.90;;;;;;5112099;28;20187;-78
2021/04/22 12:39:04;;;;;;;0.17;0.17;;;14.40;99.90;;;;;;5090667;28;20196;-80
2021/04/22 12:41:30;;;;;;;0.30;0.30;;;14.40;99.90;;;;;;5103857;28;20205;-80
2021/04/22 12:43:56;;;;;;;0.10;0.10;;;14.50;99.90;;;;;;5090650;28;20216;-80
2021/04/22 12:46:22;;;;;;;0.53;0.20;;;14.50;99.90;;;;;;5098722;28;20186;-80
2021/04/22 12:48:54;;;;;;;1.80;1.70;;;14.60;99.90;;;;;;5108558;28;20243;-80
2021/04/22 12:51:20;;;;;;;0.20;0.20;;;14.60;99.90;;;;;;5109780;28;20292;-80
2021/04/22 12:53:50;;;;;;;0.10;0.10;;;14.80;99.90;;;;;;5106054;28;20214;-80
2021/04/22 12:56:16;;;;;;;0.40;0.33;;;15.30;99.90;;;;;;5104180;28;20727;-79